Time;durP1;ratioP1;P1;durP2;ratioP2;P2;SDS_P1;SDS_P2;PMS_P1;PMS_P2;Temp;Humidity;BMP_temperature;BMP_pressure;BME280_temperature;BME280_humidity;BME280_pressure;Samples;Min_cycle;Max_cycle;Signal;HPM_P1;HPM_P2
2023/07/22 00:00:44;;;;;;;4.50;4.10;;;;;;;17.14;74.81;99771.57;126289;1296;636552;-64
2023/07/22 00:04:55;;;;;;;;;;;;;;;;;;;;;
2023/07/22 00:08:49;;;;;;;5.70;4.10;;;;;;;16.92;74.62;99773.96;126440;1303;114871;-60
2023/07/22 00:12:15;;;;;;;6.30;4.30;;;;;;;16.80;74.59;99775.79;126340;1287;537796;-63
2023/07/22 00:16:09;;;;;;;;;;;;;;;;;;;;;
2023/07/22 00:20:23;;;;;;;7.30;4.60;;;;;;;16.64;74.86;99779.14;126995;1306;114931;-62
2023/07/22 00:24:24;;;;;;;6.00;3.70;;;;;;;16.54;74.90;99775.06;125803;1309;129807;-62
2023/07/22 00:28:05;;;;;;;4.90;3.60;;;;;;;16.46;75.19;99771.77;125329;1304;115305;-61
2023/07/22 00:31:57;;;;;;;4.50;3.90;;;;;;;16.40;75.23;99772.48;125268;1316;114922;-63
2023/07/22 00:35:10;;;;;;;4.70;3.80;;;;;;;16.34;75.36;99786.99;125037;1323;114952;-63
2023/07/22 00:39:14;;;;;;;5.30;3.80;;;;;;;16.28;75.62;99794.89;125353;1323;114858;-62
2023/07/22 00:43:16;;;;;;;4.00;3.60;;;;;;;16.24;75.88;99794.82;125269;1303;130264;-63
2023/07/22 00:46:56;;;;;;;5.80;4.00;;;;;;;16.19;75.70;99798.49;125453;1316;115317;-62
2023/07/22 00:50:37;;;;;;;6.80;4.00;;;;;;;16.13;75.83;99800.39;125935;1301;114864;-62
2023/07/22 00:54:28;;;;;;;5.30;4.10;;;;;;;16.07;75.96;99801.43;125840;1314;114961;-64
2023/07/22 00:57:32;;;;;;;6.20;4.80;;;;;;;16.00;75.97;99798.04;126030;1302;114849;-63
2023/07/22 01:00:41;;;;;;;4.40;4.00;;;;;;;15.93;76.18;99798.41;127172;1298;130620;-62
2023/07/22 01:04:10;;;;;;;8.50;5.30;;;;;;;15.88;76.16;99794.13;128042;1294;115239;-62
2023/07/22 01:07:13;;;;;;;7.40;4.70;;;;;;;15.84;76.54;99799.81;128451;1293;114886;-62
2023/07/22 01:10:15;;;;;;;6.40;4.80;;;;;;;15.81;76.57;99792.81;128743;1274;114914;-62
2023/07/22 01:14:00;;;;;;;;;;;;;;;;;;;;;
2023/07/22 01:17:07;;;;;;;5.10;4.60;;;;;;;15.74;76.87;99793.98;127753;1277;128349;-62
2023/07/22 01:20:41;;;;;;;5.60;4.00;;;;;;;15.71;77.07;99785.58;128374;1293;116535;-63
2023/07/22 01:23:47;;;;;;;5.20;4.10;;;;;;;15.66;76.87;99790.59;128853;1278;114908;-62
2023/07/22 01:27:04;;;;;;;;;;;;;;;;;;;;;
2023/07/22 01:30:26;;;;;;;;;;;;;;;;;;;;;
2023/07/22 01:33:31;;;;;;;5.00;4.20;;;;;;;15.53;77.25;99798.64;129054;1270;129081;-63
2023/07/22 01:36:34;;;;;;;10.00;4.10;;;;;;;15.47;77.37;99799.98;128770;1288;115176;-63
2023/07/22 01:39:56;;;;;;;;;;;;;;;;;;;;;
2023/07/22 01:42:59;;;;;;;6.00;4.30;;;;;;;15.38;77.60;99807.95;129094;1288;114826;-63
2023/07/22 01:46:14;;;;;;;;;;;;;;;;;;;;;
2023/07/22 01:49:18;;;;;;;5.60;4.50;;;;;;;15.24;77.71;99817.61;129127;1280;128330;-64
2023/07/22 01:52:31;;;;;;;5.30;4.80;;;;;;;15.18;77.77;99820.62;129215;1287;115227;-64
2023/07/22 01:55:46;;;;;;;7.50;4.50;;;;;;;15.12;77.87;99828.45;129772;1270;114748;-64
2023/07/22 01:58:49;;;;;;;5.20;4.70;;;;;;;15.07;77.92;99836.69;129609;1256;114792;-64
2023/07/22 02:02:14;;;;;;;10.70;5.10;;;;;;;15.03;77.94;99835.94;129777;1278;115100;-64
2023/07/22 02:05:20;;;;;;;9.10;5.00;;;;;;;14.97;78.02;99837.14;129594;1263;128707;-64
2023/07/22 02:08:36;;;;;;;;;;;;;;;;;;;;;
2023/07/22 02:11:41;;;;;;;10.30;5.30;;;;;;;14.86;78.42;99841.45;129653;1261;114767;-63
2023/07/22 02:15:00;;;;;;;7.90;4.80;;;;;;;14.82;78.32;99844.70;129740;1279;115155;-63
2023/07/22 02:18:03;;;;;;;5.70;5.10;;;;;;;14.76;78.50;99848.89;129818;1262;115230;-64
2023/07/22 02:21:28;;;;;;;7.60;5.40;;;;;;;14.71;78.56;99853.20;129692;1262;114853;-64
2023/07/22 02:24:33;;;;;;;9.10;5.90;;;;;;;14.67;78.68;99857.10;129800;1279;115207;-63
2023/07/22 02:27:46;;;;;;;6.30;5.50;;;;;;;14.61;78.66;99855.36;129940;1279;114661;-63
2023/07/22 02:31:06;;;;;;;;;;;;;;;;;;;;;
2023/07/22 02:34:13;;;;;;;7.50;6.00;;;;;;;14.52;78.84;99852.41;129514;1263;114895;-63
2023/07/22 02:37:18;;;;;;;6.80;6.10;;;;;;;14.49;79.14;99857.13;129861;1268;127907;-63
2023/07/22 02:40:48;;;;;;;8.00;6.00;;;;;;;14.47;79.20;99853.02;129641;1279;116494;-63
2023/07/22 02:43:54;;;;;;;10.50;7.00;;;;;;;14.45;79.57;99854.55;129597;1261;114763;-64
2023/07/22 02:47:05;;;;;;;7.20;6.40;;;;;;;14.44;79.74;99856.55;129521;1266;114804;-63
2023/07/22 02:51:00;;;;;;;8.10;6.70;;;;;;;14.46;79.94;99858.65;129442;1271;116286;-62
2023/07/22 02:55:03;;;;;;;12.60;7.40;;;;;;;14.49;80.36;99857.14;129225;1269;128400;-64
2023/07/22 02:58:47;;;;;;;14.80;8.00;;;;;;;14.54;80.66;99856.77;128883;1288;115492;-62
2023/07/22 03:02:40;;;;;;;10.40;8.90;;;;;;;14.60;81.03;99859.57;129150;1287;114811;-63
2023/07/22 03:06:44;;;;;;;8.40;7.50;;;;;;;14.67;81.05;99868.77;128322;1293;114818;-64
2023/07/22 03:11:07;;;;;;;9.70;8.30;;;;;;;14.72;81.09;99871.27;128148;1298;114897;-62
2023/07/22 03:22:50;;;;;;;9.60;7.40;;;;;;;14.92;81.46;99881.40;129126;1267;128619;-62
2023/07/22 03:26:13;;;;;;;10.40;8.30;;;;;;;14.97;81.67;99880.94;128622;1272;115353;-62
2023/07/22 03:29:45;;;;;;;12.40;7.90;;;;;;;15.03;81.60;99883.03;128409;1278;114910;-62
2023/07/22 03:33:10;;;;;;;10.10;8.00;;;;;;;15.09;81.66;99888.89;124785;1279;5427805;-62
2023/07/22 03:36:46;;;;;;;;;;;;;;;;;;;;;
2023/07/22 03:44:05;;;;;;;8.80;6.80;;;;;;;15.26;81.72;99899.48;128588;1273;128903;-62
2023/07/22 03:48:09;;;;;;;8.60;7.70;;;;;;;15.33;81.61;99899.46;128803;1292;114961;-62
2023/07/22 03:51:59;;;;;;;7.60;6.80;;;;;;;15.43;81.69;99892.07;127311;1286;114939;-62
2023/07/22 03:55:56;;;;;;;;;;;;;;;;;;;;;
2023/07/22 03:59:30;;;;;;;;;;;;;;;;;;;;;
2023/07/22 04:03:21;;;;;;;;;;;;;;;;;;;;;
2023/07/22 04:15:20;;;;;;;8.50;7.10;;;;;;;16.05;80.74;99915.78;126751;1293;635875;-64
2023/07/22 04:19:23;;;;;;;7.30;6.60;;;;;;;16.09;80.54;99915.51;128411;1283;129024;-64
2023/07/22 04:23:24;;;;;;;8.60;6.10;;;;;;;16.16;80.40;99915.10;127383;1284;115285;-64
2023/07/22 04:27:07;;;;;;;;;;;;;;;;;;;;;
2023/07/22 04:30:33;;;;;;;6.40;5.80;;;;;;;16.31;80.12;99916.67;127589;1287;114905;-64
2023/07/22 04:34:16;;;;;;;;;;;;;;;;;;;;;
2023/07/22 04:37:49;;;;;;;;;;;;;;;;;;;;;
2023/07/22 04:41:07;;;;;;;;;;;;;;;;;;;;;
2023/07/22 04:44:34;;;;;;;;;;;;;;;;;;;;;
2023/07/22 04:48:04;;;;;;;;;;;;;;;;;;;;;
2023/07/22 04:51:48;;;;;;;7.00;4.20;;;;;;;18.17;81.11;99922.35;127235;1285;114819;-63
2023/07/22 04:55:42;;;;;;;;;;;;;;;;;;;;;
2023/07/22 04:59:56;;;;;;;4.20;3.30;;;;;;;20.42;77.31;99929.02;126742;1300;115325;-64
2023/07/22 05:03:45;;;;;;;;;;;;;;;;;;;;;
2023/07/22 05:07:37;;;;;;;4.10;3.00;;;;;;;21.75;72.96;99932.23;125726;1318;114832;-64
2023/07/22 05:11:39;;;;;;;9.10;4.60;;;;;;;21.98;71.27;99934.94;125661;1297;114961;-63
2023/07/22 05:15:30;;;;;;;7.10;3.40;;;;;;;22.05;69.91;99935.64;125811;1298;128904;-64
2023/07/22 05:19:08;;;;;;;25.40;4.70;;;;;;;22.14;69.08;99942.78;125916;1298;114758;-62
2023/07/22 05:23:10;;;;;;;5.40;2.90;;;;;;;22.32;68.77;99947.98;125712;1293;114830;-64
2023/07/22 05:26:52;;;;;;;8.70;3.30;;;;;;;22.46;67.29;99951.84;125772;1303;114873;-64
2023/07/22 05:30:35;;;;;;;;;;;;;;;;;;;;;
2023/07/22 05:38:39;;;;;;;7.10;3.40;;;;;;;22.69;65.29;99956.31;126131;1303;115202;-64
2023/07/22 05:42:47;;;;;;;5.70;3.40;;;;;;;22.63;63.73;99953.73;127399;1287;114956;-64
2023/07/22 05:46:47;;;;;;;4.40;3.00;;;;;;;22.59;63.64;99965.75;126437;1300;115047;-63
2023/07/22 05:50:47;;;;;;;5.00;3.10;;;;;;;22.51;62.67;99967.28;125925;1315;114982;-65
2023/07/22 05:58:40;;;;;;;6.60;3.40;;;;;;;22.71;61.88;99964.48;125485;1301;115319;-64
2023/07/22 06:02:39;;;;;;;;;;;;;;;;;;;;;
2023/07/22 06:06:21;;;;;;;4.80;2.60;;;;;;;23.29;61.07;99961.42;124880;1323;115045;-64
2023/07/22 06:10:16;;;;;;;;;;;;;;;;;;;;;
2023/07/22 06:18:30;;;;;;;5.30;2.80;;;;;;;24.26;58.71;99966.58;126129;1296;635711;-62
2023/07/22 06:22:16;;;;;;;4.40;2.80;;;;;;;24.67;57.78;99971.19;129276;1267;128319;-65
2023/07/22 06:25:38;;;;;;;;;;;;;;;25.02;57.34;99964.91;129369;1270;115016;-65
2023/07/22 06:29:25;;;;;;;5.10;2.60;;;;;;;25.35;57.05;99974.86;129342;1275;115170;-65
2023/07/22 06:33:28;;;;;;;4.50;2.50;;;;;;;25.71;56.25;99982.48;129205;1269;273041;-71
2023/07/22 06:37:30;;;;;;;4.30;2.50;;;;;;;25.90;54.69;99985.58;129003;1273;114860;-66
2023/07/22 06:41:33;;;;;;;3.60;3.00;;;;;;;26.00;53.84;99987.67;128456;1280;120248;-74
2023/07/22 06:45:40;;;;;;;4.30;2.50;;;;;;;26.32;53.61;99990.64;127632;1287;114802;-74
2023/07/22 06:49:42;;;;;;;5.00;2.50;;;;;;;26.55;52.80;99992.95;126389;1299;114967;-74
2023/07/22 06:57:45;;;;;;;6.00;2.70;;;;;;;27.03;50.71;99997.34;123646;1329;114982;-74
2023/07/22 07:05:41;;;;;;;3.40;2.30;;;;;;;26.77;50.17;100010.67;125899;1299;636295;-74
2023/07/22 07:09:18;;;;;;;;;;;;;;;;;;;;;
2023/07/22 07:13:13;;;;;;;6.90;2.50;;;;;;;26.56;49.67;100017.95;128693;1276;114726;-76
2023/07/22 07:17:16;;;;;;;;;;;;;;;;;;;;;
2023/07/22 07:21:11;;;;;;;8.10;2.80;;;;;;;27.39;47.98;100027.16;124661;1276;114848;-75
2023/07/22 07:25:15;;;;;;;2.70;2.50;;;;;;;27.48;47.14;100030.73;128454;1280;114816;-77
2023/07/22 07:29:16;;;;;;;2.40;2.20;;;;;;;27.24;46.41;100034.89;128092;1283;114865;-76
2023/07/22 07:41:42;;;;;;;2.90;2.40;;;;;;;26.20;46.37;100039.71;126600;1295;635952;-75
2023/07/22 07:45:46;;;;;;;2.50;2.00;;;;;;;26.62;46.36;100045.42;128879;1289;119256;-74
2023/07/22 07:49:48;;;;;;;3.90;1.90;;;;;;;26.96;45.89;100047.02;127066;1297;114833;-72
2023/07/22 07:53:49;;;;;;;3.50;1.70;;;;;;;27.38;45.74;100039.41;121942;1309;5433470;-76
2023/07/22 07:57:50;;;;;;;4.50;2.30;;;;;;;28.04;45.18;100038.36;125225;1318;114928;-71
2023/07/22 08:01:45;;;;;;;;;;;;;;;;;;;;;
2023/07/22 08:10:18;;;;;;;2.70;1.80;;;;;;;29.06;43.38;100044.10;125618;1301;640102;-73
2023/07/22 08:14:18;;;;;;;;;;;;;;;;;;;;;
2023/07/22 08:18:08;;;;;;;2.10;1.90;;;;;;;29.10;41.89;100062.24;127153;1288;114921;-74
2023/07/22 08:21:59;;;;;;;4.00;1.80;;;;;;;29.26;41.39;100060.36;123364;1291;5433860;-74
2023/07/22 08:26:00;;;;;;;4.80;2.10;;;;;;;29.37;41.07;100062.98;126584;1298;114789;-74
2023/07/22 08:30:01;;;;;;;2.40;1.60;;;;;;;29.14;40.91;100065.80;126473;1311;114823;-77
2023/07/22 08:37:57;;;;;;;4.00;1.50;;;;;;;29.61;39.99;100073.77;125000;1313;121146;-74
2023/07/22 08:41:27;;;;;;;1.70;1.60;;;;;;;29.68;39.77;100072.44;124533;1308;115346;-61
2023/07/22 08:44:48;;;;;;;1.80;1.60;;;;;;;29.89;39.34;100073.36;124218;1310;114998;-62
2023/07/22 08:48:13;;;;;;;3.70;1.90;;;;;;;30.28;39.18;100076.27;124552;1309;115262;-62
2023/07/22 08:51:57;;;;;;;;;;;;;;;;;;;;;
2023/07/22 08:55:48;;;;;;;;;;;;;;;;;;;;;
2023/07/22 08:59:00;;;;;;;5.00;1.80;;;;;;;30.62;36.82;100076.27;124940;1309;115393;-62
2023/07/22 09:02:55;;;;;;;6.40;1.70;;;;;;;30.43;36.71;100073.37;125918;1292;114922;-62
2023/07/22 09:06:37;;;;;;;3.90;1.80;;;;;;;30.20;36.73;100075.63;126594;1291;115419;-63
2023/07/22 09:10:24;;;;;;;2.50;1.40;;;;;;;30.28;36.79;100073.59;127259;1293;115344;-63
2023/07/22 09:14:17;;;;;;;4.70;1.40;;;;;;;30.10;36.11;100075.27;127518;1285;120332;-63
2023/07/22 09:18:07;;;;;;;2.20;1.50;;;;;;;29.92;36.37;100072.80;126590;1301;115108;-63
2023/07/22 09:21:36;;;;;;;6.20;1.70;;;;;;;29.97;36.05;100073.67;126352;1310;114946;-62
2023/07/22 09:25:08;;;;;;;3.00;2.00;;;;;;;30.04;35.65;100072.67;126081;1297;114995;-62
2023/07/22 09:28:27;;;;;;;3.30;1.80;;;;;;;29.83;35.20;100074.98;125967;1307;114990;-62
2023/07/22 09:32:35;;;;;;;;;;;;;;;;;;;;;
2023/07/22 09:36:26;;;;;;;2.90;1.70;;;;;;;29.72;35.48;100079.30;125067;1319;115273;-61
2023/07/22 09:39:33;;;;;;;2.20;2.00;;;;;;;29.71;34.78;100080.48;125484;1302;114884;-62
2023/07/22 09:42:59;;;;;;;2.30;1.60;;;;;;;29.55;34.78;100078.17;125426;1315;115105;-62
2023/07/22 09:47:03;;;;;;;;;;;;;;;;;;;;;
2023/07/22 09:50:46;;;;;;;;;;;;;;;;;;;;;
2023/07/22 09:54:20;;;;;;;2.20;2.00;;;;;;;29.40;34.80;100084.83;125560;1303;114812;-63
2023/07/22 09:57:45;;;;;;;4.40;2.30;;;;;;;29.13;34.57;100083.47;126096;1309;115367;-62
2023/07/22 10:01:37;;;;;;;;;;;;;;;;;;;;;
2023/07/22 10:05:33;;;;;;;3.40;2.40;;;;;;;28.75;34.91;100083.15;126667;1307;114898;-62
2023/07/22 10:09:22;;;;;;;3.70;2.10;;;;;;;28.51;35.12;100084.39;126394;1308;121052;-62
2023/07/22 10:13:12;;;;;;;3.30;2.10;;;;;;;28.33;35.19;100085.14;128190;1285;114933;-62
2023/07/22 10:16:25;;;;;;;4.40;2.20;;;;;;;28.05;35.38;100091.45;128197;1279;114873;-61
2023/07/22 10:19:51;;;;;;;2.30;2.10;;;;;;;27.90;35.36;100089.06;128258;1274;114918;-63
2023/07/22 10:23:43;;;;;;;;;;;;;;;;;;;;;
2023/07/22 10:27:41;;;;;;;3.40;2.40;;;;;;;27.59;35.52;100090.44;127432;1297;119708;-63
2023/07/22 10:31:39;;;;;;;3.10;2.20;;;;;;;27.27;35.10;100090.23;127366;1286;114779;-63
2023/07/22 10:35:31;;;;;;;2.60;2.20;;;;;;;27.08;35.36;100085.79;126728;1305;114968;-62
2023/07/22 10:38:57;;;;;;;2.40;2.20;;;;;;;27.08;35.83;100089.92;126331;1299;114972;-62
2023/07/22 10:42:21;;;;;;;;;;;;;;;;;;;;;
2023/07/22 10:45:48;;;;;;;;;;;;;;;;;;;;;
2023/07/22 10:49:51;;;;;;;3.10;2.70;;;;;;;26.96;35.72;100092.77;126258;1295;114966;-62
2023/07/22 10:58:05;;;;;;;3.20;2.30;;;;;;;26.81;35.09;100091.52;126422;1295;635939;-62
2023/07/22 11:02:07;;;;;;;3.90;2.10;;;;;;;26.73;35.51;100093.77;129263;1270;121380;-63
2023/07/22 11:05:50;;;;;;;2.90;2.50;;;;;;;26.83;35.82;100088.54;128382;1274;114823;-63
2023/07/22 11:09:16;;;;;;;2.90;2.60;;;;;;;26.88;35.64;100095.61;127234;1284;114819;-61
2023/07/22 11:12:30;;;;;;;2.40;2.20;;;;;;;26.69;35.00;100090.77;123458;1286;115386;-61
2023/07/22 11:16:08;;;;;;;2.80;2.20;;;;;;;26.56;34.82;100093.77;127332;1287;114822;-63
2023/07/22 11:19:54;;;;;;;3.70;2.10;;;;;;;26.44;34.91;100100.51;127356;1286;114925;-61
2023/07/22 11:23:57;;;;;;;5.10;2.50;;;;;;;26.42;35.06;100102.03;126266;1308;120201;-62
2023/07/22 11:27:37;;;;;;;2.80;2.30;;;;;;;26.50;35.00;100101.62;126502;1295;114948;-63
2023/07/22 11:30:54;;;;;;;2.90;2.20;;;;;;;26.54;34.94;100099.62;126717;1305;114954;-62
2023/07/22 11:34:48;;;;;;;3.40;2.40;;;;;;;26.66;35.43;100089.83;126689;1289;114862;-62
2023/07/22 11:38:50;;;;;;;3.30;2.40;;;;;;;26.81;35.66;100090.77;127183;1298;114969;-63
2023/07/22 11:42:52;;;;;;;3.70;2.10;;;;;;;26.77;34.71;100091.58;126354;1294;120168;-62
2023/07/22 11:46:27;;;;;;;4.10;2.60;;;;;;;26.61;34.49;100092.11;126076;1300;116603;-63
2023/07/22 11:50:03;;;;;;;;;;;;;;;;;;;;;
2023/07/22 11:53:49;;;;;;;3.20;2.10;;;;;;;26.13;34.57;100095.80;126944;1291;114874;-62
2023/07/22 11:57:44;;;;;;;3.20;2.40;;;;;;;25.98;35.26;100096.31;127201;1299;114857;-62
2023/07/22 12:01:30;;;;;;;2.80;2.00;;;;;;;25.97;35.60;100092.34;127718;1280;120255;-64
2023/07/22 12:05:14;;;;;;;3.00;2.40;;;;;;;25.96;35.43;100090.32;126717;1286;114950;-62
2023/07/22 12:09:15;;;;;;;2.70;2.50;;;;;;;25.91;35.62;100087.34;126517;1308;114778;-63
2023/07/22 12:13:12;;;;;;;;;;;;;;;;;;;;;
2023/07/22 12:17:03;;;;;;;2.50;2.20;;;;;;;25.83;35.70;100076.23;126091;1298;114957;-61
2023/07/22 12:21:02;;;;;;;;;;;;;;;;;;;;;
2023/07/22 12:24:45;;;;;;;4.30;2.30;;;;;;;25.81;35.30;100078.48;124861;1321;115659;-63
2023/07/22 12:28:15;;;;;;;;;;;;;;;;;;;;;
2023/07/22 12:31:46;;;;;;;3.70;2.50;;;;;;;25.68;35.22;100073.61;125039;1324;114865;-63
2023/07/22 12:35:44;;;;;;;3.00;2.20;;;;;;;25.71;34.97;100072.88;125334;1303;114962;-63
2023/07/22 12:39:12;;;;;;;;;;;;;;;;;;;;;
2023/07/22 12:42:58;;;;;;;4.60;2.60;;;;;;;25.86;34.71;100072.92;125550;1301;114898;-64
2023/07/22 12:46:33;;;;;;;4.00;2.20;;;;;;;25.86;34.74;100080.34;126099;1308;114891;-63
2023/07/22 12:49:51;;;;;;;3.50;2.40;;;;;;;25.83;34.72;100076.98;126033;1304;115009;-63
2023/07/22 12:53:35;;;;;;;4.30;2.30;;;;;;;25.78;34.45;100074.27;126137;1295;114971;-62
2023/07/22 12:56:56;;;;;;;2.00;1.80;;;;;;;25.75;34.59;100065.83;126024;1295;121289;-64
2023/07/22 13:00:49;;;;;;;;;;;;;;;;;;;;;
2023/07/22 13:04:05;;;;;;;3.40;2.10;;;;;;;25.72;33.84;100064.48;125763;1316;114896;-63
2023/07/22 13:07:54;;;;;;;3.50;2.40;;;;;;;25.73;33.83;100061.79;125867;1308;115022;-62
2023/07/22 13:11:38;;;;;;;2.60;1.90;;;;;;;25.79;33.85;100062.83;125364;1304;115244;-62
2023/07/22 13:19:17;;;;;;;4.20;2.20;;;;;;;25.78;33.40;100062.16;126181;1305;635782;-61
2023/07/22 13:23:09;;;;;;;2.90;2.10;;;;;;;25.76;33.24;100059.05;128758;1277;120311;-63
2023/07/22 13:26:43;;;;;;;;;;;;;;;;;;;;;
2023/07/22 13:30:30;;;;;;;4.40;2.30;;;;;;;25.76;33.46;100048.26;127762;1285;114816;-62
2023/07/22 13:34:02;;;;;;;;;;;;;;;;;;;;;
2023/07/22 13:37:56;;;;;;;;;;;;;;;;;;;;;
2023/07/22 13:42:13;;;;;;;5.00;2.40;;;;;;;25.86;32.88;100048.26;125472;1305;115025;-63
2023/07/22 13:46:14;;;;;;;2.50;1.90;;;;;;;25.88;32.68;100045.44;124576;1326;128855;-61
2023/07/22 13:49:35;;;;;;;5.30;2.00;;;;;;;25.88;32.65;100045.47;123588;1319;116422;-63
2023/07/22 13:52:41;;;;;;;3.80;2.30;;;;;;;25.90;32.66;100042.77;123548;1319;115008;-62
2023/07/22 13:55:41;;;;;;;2.30;2.10;;;;;;;25.97;32.63;100043.86;123548;1321;115088;-63
2023/07/22 13:58:59;;;;;;;2.70;2.30;;;;;;;26.01;32.62;100047.25;123469;1338;114984;-62
2023/07/22 14:02:26;;;;;;;3.70;2.40;;;;;;;25.98;32.44;100049.91;123481;1309;114909;-62
2023/07/22 14:05:55;;;;;;;3.60;2.40;;;;;;;25.98;32.83;100053.49;124008;1333;120184;-62
2023/07/22 14:09:26;;;;;;;3.50;2.80;;;;;;;25.94;32.95;100050.94;124523;1310;115140;-62
2023/07/22 14:13:00;;;;;;;;;;;;;;;;;;;;;
2023/07/22 14:16:25;;;;;;;2.60;2.30;;;;;;;25.78;32.57;100049.39;124537;1312;114953;-62
2023/07/22 14:19:34;;;;;;;;;;;;;;;25.65;32.62;100051.59;126036;1298;115090;-63
2023/07/22 14:23:06;;;;;;;5.60;2.50;;;;;;;25.57;32.57;100049.64;127026;1294;120054;-62
2023/07/22 14:26:11;;;;;;;4.90;2.40;;;;;;;25.55;32.80;100044.01;127415;1281;114991;-61
2023/07/22 14:29:18;;;;;;;2.90;2.50;;;;;;;25.60;32.81;100043.80;128015;1279;114797;-61
2023/07/22 14:32:30;;;;;;;2.80;2.50;;;;;;;25.59;32.64;100036.98;128778;1290;114937;-63
2023/07/22 14:36:12;;;;;;;3.00;2.30;;;;;;;25.63;32.96;100035.62;128801;1271;114902;-62
2023/07/22 14:40:07;;;;;;;;;;;;;;;;;;;;;
2023/07/22 14:43:23;;;;;;;5.50;2.90;;;;;;;25.64;32.49;100038.23;127952;1270;116352;-62
2023/07/22 14:46:26;;;;;;;5.40;2.70;;;;;;;25.65;32.71;100033.48;129034;1276;115578;-61
2023/07/22 14:49:59;;;;;;;5.10;3.00;;;;;;;25.71;32.61;100032.97;128773;1273;114884;-63
2023/07/22 14:53:27;;;;;;;;;;;;;;;;;;;;;
2023/07/22 14:57:31;;;;;;;2.70;2.20;;;;;;;25.63;32.73;100036.85;128704;1274;120126;-63
2023/07/22 15:00:55;;;;;;;7.80;2.40;;;;;;;25.62;32.75;100036.42;127432;1286;114938;-62
2023/07/22 15:03:58;;;;;;;5.40;2.90;;;;;;;25.60;32.68;100036.91;127283;1288;114883;-61
2023/07/22 15:07:09;;;;;;;2.90;2.60;;;;;;;25.61;32.85;100034.91;127492;1285;114951;-62
2023/07/22 15:10:28;;;;;;;;;;;;;;;;;;;;;
2023/07/22 15:13:40;;;;;;;4.00;2.50;;;;;;;25.61;32.70;100036.88;127299;1289;120236;-62
2023/07/22 15:17:32;;;;;;;;;;;;;;;;;;;;;
2023/07/22 15:21:20;;;;;;;8.60;3.10;;;;;;;25.53;32.38;100032.88;126244;1305;635897;-61
2023/07/22 15:24:27;;;;;;;3.90;2.60;;;;;;;25.45;32.30;100036.69;129647;1263;120231;-61
2023/07/22 15:28:00;;;;;;;3.20;2.90;;;;;;;25.49;32.68;100034.17;129863;1260;114741;-64
2023/07/22 15:31:33;;;;;;;3.10;2.40;;;;;;;25.46;32.38;100029.45;129708;1279;114824;-62
2023/07/22 15:34:36;;;;;;;3.30;2.60;;;;;;;25.38;32.40;100026.73;125239;1285;5457076;-63
2023/07/22 15:38:09;;;;;;;5.30;2.30;;;;;;;25.32;32.26;100025.11;129370;1273;115107;-62
2023/07/22 15:41:43;;;;;;;3.60;2.70;;;;;;;25.23;32.31;100022.27;129234;1285;114899;-63
2023/07/22 15:45:25;;;;;;;3.70;2.40;;;;;;;25.12;32.37;100026.84;129456;1270;128907;-62
2023/07/22 15:48:34;;;;;;;3.60;2.40;;;;;;;24.94;32.41;100027.58;128021;1279;114781;-62
2023/07/22 15:51:48;;;;;;;4.50;3.10;;;;;;;24.85;32.45;100029.17;127906;1290;114915;-62
2023/07/22 15:55:44;;;;;;;;;;;;;;;;;;;;;
2023/07/22 15:59:45;;;;;;;3.60;2.80;;;;;;;24.63;32.60;100029.87;126493;1305;115303;-63
2023/07/22 16:03:25;;;;;;;3.20;2.90;;;;;;;24.58;32.51;100028.95;125819;1309;129864;-63
2023/07/22 16:07:09;;;;;;;;;;;;;;;;;;;;;
2023/07/22 16:10:51;;;;;;;4.60;2.70;;;;;;;24.55;32.94;100029.58;124935;1322;114872;-63
2023/07/22 16:14:00;;;;;;;2.90;2.20;;;;;;;24.55;33.13;100028.20;125615;1310;115013;-64
2023/07/22 16:17:03;;;;;;;4.70;3.00;;;;;;;24.53;33.26;100025.27;125717;1312;115547;-63
2023/07/22 16:20:32;;;;;;;;;;;;;;;;;;;;;
2023/07/22 16:24:35;;;;;;;6.00;2.80;;;;;;;24.40;33.34;100028.55;125708;1316;116616;-67
2023/07/22 16:28:18;;;;;;;3.70;2.60;;;;;;;24.26;33.21;100027.33;125561;1320;114924;-65
2023/07/22 16:32:10;;;;;;;;;;;;;;;;;;;;;
2023/07/22 16:35:56;;;;;;;3.30;2.60;;;;;;;24.08;33.24;100030.33;126143;1298;636919;-65
2023/07/22 16:39:52;;;;;;;5.90;2.30;;;;;;;23.96;33.56;100027.56;128639;1272;128981;-65
2023/07/22 16:43:32;;;;;;;3.20;2.60;;;;;;;23.81;33.37;100023.39;128443;1273;114941;-66
2023/07/22 16:47:04;;;;;;;3.50;2.50;;;;;;;23.68;33.39;100020.99;128756;1272;114719;-64
2023/07/22 16:51:06;;;;;;;;;;;;;;;;;;;;;
2023/07/22 16:55:11;;;;;;;3.60;2.20;;;;;;;23.39;33.58;100027.56;126955;1290;114837;-61
2023/07/22 16:59:10;;;;;;;;;;;;;;;;;;;;;
2023/07/22 17:02:44;;;;;;;5.10;2.80;;;;;;;23.12;33.85;100027.00;125379;1308;129149;-66
2023/07/22 17:11:20;;;;;;;6.70;2.70;;;;;;;22.92;34.57;100032.96;125813;1303;637900;-64
2023/07/22 17:14:55;;;;;;;;;;;;;;;;;;;;;
2023/07/22 17:18:40;;;;;;;3.70;3.00;;;;;;;22.62;34.56;100032.73;126604;1296;115429;-63
2023/07/22 17:22:22;;;;;;;5.60;3.60;;;;;;;22.51;34.71;100026.63;127076;1299;114847;-62
2023/07/22 17:26:25;;;;;;;4.30;3.20;;;;;;;22.39;34.88;100028.77;123780;1283;114950;-63
2023/07/22 17:30:26;;;;;;;4.00;2.80;;;;;;;22.26;35.10;100036.59;125831;1311;115186;-61
2023/07/22 17:34:18;;;;;;;;;;;;;;;;;;;;;
2023/07/22 17:38:18;;;;;;;;;;;;;;;;;;;;;
2023/07/22 17:45:50;;;;;;;3.70;3.00;;;;;;;21.81;36.70;100040.13;127125;1292;635897;-68
2023/07/22 17:49:37;;;;;;;5.20;3.10;;;;;;;21.68;36.68;100043.05;129038;1269;128897;-67
2023/07/22 17:53:18;;;;;;;;;;;;;;;;;;;;;
2023/07/22 17:56:54;;;;;;;;;;;;;;;;;;;;;
2023/07/22 18:00:43;;;;;;;4.40;3.20;;;;;;;21.31;38.05;100050.38;124237;1278;5444324;-67
2023/07/22 18:04:15;;;;;;;6.70;3.70;;;;;;;21.14;38.26;100050.04;128594;1277;114908;-67
2023/07/22 18:08:02;;;;;;;4.10;3.20;;;;;;;20.99;38.51;100048.92;128537;1282;114907;-65
2023/07/22 18:11:45;;;;;;;;;;;;;;;;;;;;;
2023/07/22 18:15:11;;;;;;;5.80;4.20;;;;;;;20.71;38.99;100049.58;127649;1283;114936;-68
2023/07/22 18:19:12;;;;;;;12.30;6.50;;;;;;;20.57;39.50;100052.34;127522;1284;114923;-69
2023/07/22 18:22:57;;;;;;;;;;;;;;;;;;;;;
2023/07/22 18:26:36;;;;;;;9.10;7.70;;;;;;;20.26;40.05;100053.70;126126;1288;115039;-67
2023/07/22 18:30:14;;;;;;;12.60;9.00;;;;;;;20.09;40.62;100056.55;125813;1299;130373;-64
2023/07/22 18:34:23;;;;;;;;;;;;;;;;;;;;;
2023/07/22 18:37:54;;;;;;;29.80;20.20;;;;;;;19.75;41.43;100066.30;125554;1319;114870;-66
2023/07/22 18:41:45;;;;;;;12.30;10.30;;;;;;;19.61;41.99;100069.63;125196;1306;114976;-63
2023/07/22 18:45:22;;;;;;;16.10;12.30;;;;;;;19.44;42.11;100067.71;123869;1332;114923;-67
2023/07/22 18:49:13;;;;;;;13.50;10.70;;;;;;;19.27;42.36;100066.30;124591;1320;129709;-67
2023/07/22 18:52:51;;;;;;;16.00;9.90;;;;;;;19.11;42.84;100069.77;125611;1303;115317;-65
2023/07/22 18:56:52;;;;;;;29.00;18.30;;;;;;;18.95;43.54;100075.69;125430;1303;114995;-63
2023/07/22 19:00:18;;;;;;;;;;;;;;;;;;;;;
2023/07/22 19:04:05;;;;;;;33.80;23.50;;;;;;;18.60;44.12;100075.75;125766;1297;114950;-68
2023/07/22 19:07:57;;;;;;;;;;;;;;;;;;;;;
2023/07/22 19:11:16;;;;;;;;;;;;;;;;;;;;;
2023/07/22 19:15:01;;;;;;;;;;;;;;;;;;;;;
2023/07/22 19:18:42;;;;;;;;;;;;;;;;;;;;;
2023/07/22 19:22:47;;;;;;;141.80;88.20;;;;;;;17.84;46.22;100093.52;127817;1290;114937;-66
2023/07/22 19:26:42;;;;;;;49.90;32.50;;;;;;;17.68;46.95;100097.26;128537;1278;129045;-67
2023/07/22 19:30:27;;;;;;;29.70;17.20;;;;;;;17.54;47.20;100103.27;127359;1296;114969;-70
2023/07/22 19:34:22;;;;;;;16.20;10.90;;;;;;;17.42;47.62;100104.98;127563;1285;114964;-73
2023/07/22 19:38:26;;;;;;;27.00;17.50;;;;;;;17.28;48.16;100106.21;127240;1287;115272;-73
2023/07/22 19:42:21;;;;;;;169.30;124.70;;;;;;;17.15;48.52;100107.63;125917;1315;115409;-71
2023/07/22 19:46:12;;;;;;;66.80;46.10;;;;;;;17.01;49.34;100109.64;125639;1300;129743;-71
2023/07/22 19:49:57;;;;;;;;;;;;;;;;;;;;;
2023/07/22 19:53:57;;;;;;;;;;;;;;;;;;;;;
2023/07/22 20:02:17;;;;;;;30.50;21.00;;;;;;;16.53;51.15;100120.59;126669;1303;636348;-73
2023/07/22 20:06:15;;;;;;;;;;;;;;;;;;;;;
2023/07/22 20:10:19;;;;;;;22.90;13.50;;;;;;;16.30;52.10;100126.71;128044;1287;115163;-75
2023/07/22 20:14:16;;;;;;;21.80;12.00;;;;;;;16.19;52.55;100129.70;123071;1289;5415370;-72
2023/07/22 20:18:05;;;;;;;19.10;12.10;;;;;;;16.09;52.90;100130.05;126784;1291;116787;-71
2023/07/22 20:22:08;;;;;;;18.50;11.20;;;;;;;15.99;53.26;100125.55;126231;1302;115071;-75